Portada
METAR-TAF:

METAR-TAF

Aeroports :

Sokoto, Nigèria

latitud: 13-01N, longitud: 005-15E, altitud: 351 m

METAR: manca

Hora: 00:57 (23:57 UTC)

Pronòstic

L'informe es va fer fa 57 minuts, a les 23:00 UTC
Pronòstic vàlid del 30 a les 00 UTC al 31 a les 06 UTC
Vent 10 kt del Oest/Sud-Oest
Visibilitat 10 km o més
sense núvols per sota de 1500 mi sense presència de cumulonimbus.
Temporalment
l' 30 a les 12 UTC al 30 a les 18 UTC
Núvols disperses a una alçada de 1400 ft
Escasses núvols a una alçada de 2000 ft, Cumulonimbus.
tempesta

TAF: DNSO 292300Z 3000/3106 24010KT CAVOK TEMPO 3012/3018 TS SCT014 FEW020CB

Observacions i pronòstics meteorològics de més de 4000 aeroports (METAR i TAF).

Les estacions disponibles són els punts grocs i vermells al mapa.

Posi el ratolí al punt desitjat per veure el nom de l'estació.

Feu clic per veure les observacions i els pronòstics meteorològics.

Per canviar el mapa: feu clic els botons verds amb una creu de color negre per apropar; al botó verd amb un guió per allunyar la imatge; o en les fletxes verdes per a mapes adjacents.


METAR-TAF: